sensor_id;sensor_type;location;lat;lon;timestamp;temperature;humidity
39695;DHT22;25367;-35.352;149.036;2023-03-01T00:02:00;26.60;50.90
39695;DHT22;25367;-35.352;149.036;2023-03-01T00:04:29;26.60;50.90
39695;DHT22;25367;-35.352;149.036;2023-03-01T00:06:58;26.60;50.90
39695;DHT22;25367;-35.352;149.036;2023-03-01T00:09:28;26.60;50.80
39695;DHT22;25367;-35.352;149.036;2023-03-01T00:11:57;26.60;50.80
39695;DHT22;25367;-35.352;149.036;2023-03-01T00:14:27;26.70;50.90
39695;DHT22;25367;-35.352;149.036;2023-03-01T00:16:57;26.70;50.70
39695;DHT22;25367;-35.352;149.036;2023-03-01T00:19:28;26.70;50.60
39695;DHT22;25367;-35.352;149.036;2023-03-01T00:21:58;26.70;50.70
39695;DHT22;25367;-35.352;149.036;2023-03-01T00:24:27;26.70;50.70
39695;DHT22;25367;-35.352;149.036;2023-03-01T00:26:57;26.70;50.70
39695;DHT22;25367;-35.352;149.036;2023-03-01T00:29:26;26.80;50.80
39695;DHT22;25367;-35.352;149.036;2023-03-01T00:31:57;26.80;50.70
39695;DHT22;25367;-35.352;149.036;2023-03-01T00:34:29;26.80;50.70
39695;DHT22;25367;-35.352;149.036;2023-03-01T00:36:58;26.80;50.60
39695;DHT22;25367;-35.352;149.036;2023-03-01T00:39:28;26.80;50.50
39695;DHT22;25367;-35.352;149.036;2023-03-01T00:41:58;26.90;50.60
39695;DHT22;25367;-35.352;149.036;2023-03-01T00:44:28;26.90;50.50
39695;DHT22;25367;-35.352;149.036;2023-03-01T00:46:57;26.90;50.50
39695;DHT22;25367;-35.352;149.036;2023-03-01T00:49:29;26.90;51.10
39695;DHT22;25367;-35.352;149.036;2023-03-01T00:51:58;26.90;50.30
39695;DHT22;25367;-35.352;149.036;2023-03-01T00:54:28;26.90;50.50
39695;DHT22;25367;-35.352;149.036;2023-03-01T00:56:57;27.00;50.50
39695;DHT22;25367;-35.352;149.036;2023-03-01T00:59:27;27.00;50.40
39695;DHT22;25367;-35.352;149.036;2023-03-01T01:01:57;27.00;50.50
39695;DHT22;25367;-35.352;149.036;2023-03-01T01:04:28;27.00;50.20
39695;DHT22;25367;-35.352;149.036;2023-03-01T01:06:57;27.10;50.50
39695;DHT22;25367;-35.352;149.036;2023-03-01T01:09:27;27.10;50.40
39695;DHT22;25367;-35.352;149.036;2023-03-01T01:11:56;27.10;50.80
39695;DHT22;25367;-35.352;149.036;2023-03-01T01:14:26;27.10;50.00
39695;DHT22;25367;-35.352;149.036;2023-03-01T01:16:57;27.10;50.20
39695;DHT22;25367;-35.352;149.036;2023-03-01T01:19:28;27.20;50.20
39695;DHT22;25367;-35.352;149.036;2023-03-01T01:21:58;27.20;50.10
39695;DHT22;25367;-35.352;149.036;2023-03-01T01:24:27;27.20;50.20
39695;DHT22;25367;-35.352;149.036;2023-03-01T01:26:57;27.20;50.00
39695;DHT22;25367;-35.352;149.036;2023-03-01T01:29:26;27.20;49.90
39695;DHT22;25367;-35.352;149.036;2023-03-01T01:31:56;27.20;50.00
39695;DHT22;25367;-35.352;149.036;2023-03-01T01:34:27;27.30;49.90
39695;DHT22;25367;-35.352;149.036;2023-03-01T01:36:57;27.30;49.90
39695;DHT22;25367;-35.352;149.036;2023-03-01T01:39:26;27.30;49.90
39695;DHT22;25367;-35.352;149.036;2023-03-01T01:41:56;27.30;49.60
39695;DHT22;25367;-35.352;149.036;2023-03-01T01:44:26;27.30;49.70
39695;DHT22;25367;-35.352;149.036;2023-03-01T01:46:58;27.40;49.70
39695;DHT22;25367;-35.352;149.036;2023-03-01T01:49:47;27.50;49.70
39695;DHT22;25367;-35.352;149.036;2023-03-01T01:52:20;27.50;49.90
39695;DHT22;25367;-35.352;149.036;2023-03-01T01:54:54;27.40;49.70
39695;DHT22;25367;-35.352;149.036;2023-03-01T01:57:29;27.50;49.50
39695;DHT22;25367;-35.352;149.036;2023-03-01T02:00:03;27.50;49.60
39695;DHT22;25367;-35.352;149.036;2023-03-01T02:02:43;27.50;49.10
39695;DHT22;25367;-35.352;149.036;2023-03-01T02:05:24;27.50;49.30
39695;DHT22;25367;-35.352;149.036;2023-03-01T02:07:56;27.60;49.40
39695;DHT22;25367;-35.352;149.036;2023-03-01T02:10:26;27.50;49.20
39695;DHT22;25367;-35.352;149.036;2023-03-01T02:12:57;27.60;49.10
39695;DHT22;25367;-35.352;149.036;2023-03-01T02:15:27;27.60;49.40
39695;DHT22;25367;-35.352;149.036;2023-03-01T02:18:01;27.60;49.00
39695;DHT22;25367;-35.352;149.036;2023-03-01T02:20:37;27.60;49.20
39695;DHT22;25367;-35.352;149.036;2023-03-01T02:23:09;27.70;49.20
39695;DHT22;25367;-35.352;149.036;2023-03-01T02:25:45;27.70;48.60
39695;DHT22;25367;-35.352;149.036;2023-03-01T02:28:29;27.70;48.70
39695;DHT22;25367;-35.352;149.036;2023-03-01T02:30:59;27.80;49.10
39695;DHT22;25367;-35.352;149.036;2023-03-01T02:33:28;27.70;48.80
39695;DHT22;25367;-35.352;149.036;2023-03-01T02:35:58;27.80;49.10
39695;DHT22;25367;-35.352;149.036;2023-03-01T02:38:29;27.80;49.00
39695;DHT22;25367;-35.352;149.036;2023-03-01T02:41:00;27.80;49.10
39695;DHT22;25367;-35.352;149.036;2023-03-01T02:43:34;27.80;49.10
39695;DHT22;25367;-35.352;149.036;2023-03-01T02:46:06;27.90;48.70
39695;DHT22;25367;-35.352;149.036;2023-03-01T02:48:43;27.90;47.90
39695;DHT22;25367;-35.352;149.036;2023-03-01T02:51:24;27.90;48.60
39695;DHT22;25367;-35.352;149.036;2023-03-01T02:54:05;27.90;48.50
39695;DHT22;25367;-35.352;149.036;2023-03-01T02:56:37;27.90;48.80
39695;DHT22;25367;-35.352;149.036;2023-03-01T02:59:09;28.00;48.80
39695;DHT22;25367;-35.352;149.036;2023-03-01T03:01:40;28.00;48.90
39695;DHT22;25367;-35.352;149.036;2023-03-01T03:04:11;28.00;48.80
39695;DHT22;25367;-35.352;149.036;2023-03-01T03:06:43;28.10;49.00
39695;DHT22;25367;-35.352;149.036;2023-03-01T03:09:13;28.10;47.20
39695;DHT22;25367;-35.352;149.036;2023-03-01T03:11:44;28.10;48.10
39695;DHT22;25367;-35.352;149.036;2023-03-01T03:14:17;28.10;47.90
39695;DHT22;25367;-35.352;149.036;2023-03-01T03:16:50;28.10;47.40
39695;DHT22;25367;-35.352;149.036;2023-03-01T03:19:20;28.20;47.80
39695;DHT22;25367;-35.352;149.036;2023-03-01T03:21:49;28.20;48.20
39695;DHT22;25367;-35.352;149.036;2023-03-01T03:24:18;28.20;48.30
39695;DHT22;25367;-35.352;149.036;2023-03-01T03:26:48;28.20;48.40
39695;DHT22;25367;-35.352;149.036;2023-03-01T03:29:19;28.20;48.40
39695;DHT22;25367;-35.352;149.036;2023-03-01T03:31:49;28.30;48.30
39695;DHT22;25367;-35.352;149.036;2023-03-01T03:34:18;28.30;48.30
39695;DHT22;25367;-35.352;149.036;2023-03-01T03:36:47;28.30;48.40
39695;DHT22;25367;-35.352;149.036;2023-03-01T03:39:17;28.40;48.30
39695;DHT22;25367;-35.352;149.036;2023-03-01T03:41:46;28.40;48.50
39695;DHT22;25367;-35.352;149.036;2023-03-01T03:44:17;28.40;49.20
39695;DHT22;25367;-35.352;149.036;2023-03-01T03:46:47;28.50;48.80
39695;DHT22;25367;-35.352;149.036;2023-03-01T03:49:17;28.50;48.80
39695;DHT22;25367;-35.352;149.036;2023-03-01T03:51:47;28.50;48.80
39695;DHT22;25367;-35.352;149.036;2023-03-01T03:54:16;28.60;48.90
39695;DHT22;25367;-35.352;149.036;2023-03-01T03:56:46;28.60;48.80
39695;DHT22;25367;-35.352;149.036;2023-03-01T03:59:15;28.70;48.50
39695;DHT22;25367;-35.352;149.036;2023-03-01T04:01:46;28.70;48.80
39695;DHT22;25367;-35.352;149.036;2023-03-01T04:04:16;28.70;48.50
39695;DHT22;25367;-35.352;149.036;2023-03-01T04:06:45;28.80;48.70
39695;DHT22;25367;-35.352;149.036;2023-03-01T04:09:15;28.80;48.70
39695;DHT22;25367;-35.352;149.036;2023-03-01T04:11:44;28.80;48.50
39695;DHT22;25367;-35.352;149.036;2023-03-01T04:14:14;28.80;48.50
39695;DHT22;25367;-35.352;149.036;2023-03-01T04:16:45;28.80;48.40
39695;DHT22;25367;-35.352;149.036;2023-03-01T04:19:14;28.90;47.20
39695;DHT22;25367;-35.352;149.036;2023-03-01T04:21:44;28.90;47.70
39695;DHT22;25367;-35.352;149.036;2023-03-01T04:24:13;28.90;48.00
39695;DHT22;25367;-35.352;149.036;2023-03-01T04:26:43;28.90;47.90
39695;DHT22;25367;-35.352;149.036;2023-03-01T04:29:12;28.90;48.00
39695;DHT22;25367;-35.352;149.036;2023-03-01T04:31:42;29.00;48.40
39695;DHT22;25367;-35.352;149.036;2023-03-01T04:34:14;29.00;48.40
39695;DHT22;25367;-35.352;149.036;2023-03-01T04:36:45;29.10;48.30
39695;DHT22;25367;-35.352;149.036;2023-03-01T04:39:14;29.00;48.30
39695;DHT22;25367;-35.352;149.036;2023-03-01T04:41:44;29.10;48.30
39695;DHT22;25367;-35.352;149.036;2023-03-01T04:44:13;29.10;48.30
39695;DHT22;25367;-35.352;149.036;2023-03-01T04:46:42;29.10;48.20
39695;DHT22;25367;-35.352;149.036;2023-03-01T04:49:14;29.10;48.30
39695;DHT22;25367;-35.352;149.036;2023-03-01T04:51:43;29.10;48.20
39695;DHT22;25367;-35.352;149.036;2023-03-01T04:54:12;29.20;48.20
39695;DHT22;25367;-35.352;149.036;2023-03-01T04:56:42;29.20;48.10
39695;DHT22;25367;-35.352;149.036;2023-03-01T04:59:11;29.20;48.00
39695;DHT22;25367;-35.352;149.036;2023-03-01T05:01:40;29.20;47.90
39695;DHT22;25367;-35.352;149.036;2023-03-01T05:04:12;29.20;47.80
39695;DHT22;25367;-35.352;149.036;2023-03-01T05:06:41;29.30;47.60
39695;DHT22;25367;-35.352;149.036;2023-03-01T05:09:11;29.30;47.60
39695;DHT22;25367;-35.352;149.036;2023-03-01T05:11:40;29.30;47.60
39695;DHT22;25367;-35.352;149.036;2023-03-01T05:14:10;29.30;47.40
39695;DHT22;25367;-35.352;149.036;2023-03-01T05:16:40;29.30;47.40
39695;DHT22;25367;-35.352;149.036;2023-03-01T05:19:09;29.40;47.30
39695;DHT22;25367;-35.352;149.036;2023-03-01T05:21:41;29.30;47.20
39695;DHT22;25367;-35.352;149.036;2023-03-01T05:24:10;29.40;47.20
39695;DHT22;25367;-35.352;149.036;2023-03-01T05:26:40;29.40;47.30
39695;DHT22;25367;-35.352;149.036;2023-03-01T05:29:09;29.40;47.20
39695;DHT22;25367;-35.352;149.036;2023-03-01T05:31:38;29.40;47.00
39695;DHT22;25367;-35.352;149.036;2023-03-01T05:34:08;29.40;47.00
39695;DHT22;25367;-35.352;149.036;2023-03-01T05:36:39;29.40;47.00
39695;DHT22;25367;-35.352;149.036;2023-03-01T05:39:08;29.40;47.00
39695;DHT22;25367;-35.352;149.036;2023-03-01T05:41:38;29.40;47.00
39695;DHT22;25367;-35.352;149.036;2023-03-01T05:44:08;29.40;47.00
39695;DHT22;25367;-35.352;149.036;2023-03-01T05:46:37;29.40;46.60
39695;DHT22;25367;-35.352;149.036;2023-03-01T05:49:07;29.40;46.90
39695;DHT22;25367;-35.352;149.036;2023-03-01T05:51:36;29.40;47.40
39695;DHT22;25367;-35.352;149.036;2023-03-01T05:54:07;29.40;47.10
39695;DHT22;25367;-35.352;149.036;2023-03-01T05:56:38;29.50;47.10
39695;DHT22;25367;-35.352;149.036;2023-03-01T05:59:07;29.40;47.40
39695;DHT22;25367;-35.352;149.036;2023-03-01T06:01:37;29.50;47.00
39695;DHT22;25367;-35.352;149.036;2023-03-01T06:04:07;29.50;47.00
39695;DHT22;25367;-35.352;149.036;2023-03-01T06:06:36;29.50;47.40
39695;DHT22;25367;-35.352;149.036;2023-03-01T06:09:08;29.50;46.90
39695;DHT22;25367;-35.352;149.036;2023-03-01T06:11:38;29.50;46.70
39695;DHT22;25367;-35.352;149.036;2023-03-01T06:14:09;29.40;46.60
39695;DHT22;25367;-35.352;149.036;2023-03-01T06:16:38;29.50;46.70
39695;DHT22;25367;-35.352;149.036;2023-03-01T06:19:08;29.50;46.70
39695;DHT22;25367;-35.352;149.036;2023-03-01T06:21:37;29.50;46.60
39695;DHT22;25367;-35.352;149.036;2023-03-01T06:24:09;29.50;46.50
39695;DHT22;25367;-35.352;149.036;2023-03-01T06:26:38;29.50;46.50
39695;DHT22;25367;-35.352;149.036;2023-03-01T06:29:08;29.50;46.50
39695;DHT22;25367;-35.352;149.036;2023-03-01T06:31:37;29.50;46.50
39695;DHT22;25367;-35.352;149.036;2023-03-01T06:34:06;29.50;46.40
39695;DHT22;25367;-35.352;149.036;2023-03-01T06:36:36;29.50;46.20
39695;DHT22;25367;-35.352;149.036;2023-03-01T06:39:07;29.50;46.20
39695;DHT22;25367;-35.352;149.036;2023-03-01T06:41:36;29.50;46.00
39695;DHT22;25367;-35.352;149.036;2023-03-01T06:44:06;29.50;45.90
39695;DHT22;25367;-35.352;149.036;2023-03-01T06:46:35;29.50;45.80
39695;DHT22;25367;-35.352;149.036;2023-03-01T06:49:05;29.50;45.90
39695;DHT22;25367;-35.352;149.036;2023-03-01T06:51:34;29.50;46.00
39695;DHT22;25367;-35.352;149.036;2023-03-01T06:54:04;29.50;46.00
39695;DHT22;25367;-35.352;149.036;2023-03-01T06:56:36;29.50;46.00
39695;DHT22;25367;-35.352;149.036;2023-03-01T06:59:06;29.50;46.10
39695;DHT22;25367;-35.352;149.036;2023-03-01T07:01:35;29.40;46.00
39695;DHT22;25367;-35.352;149.036;2023-03-01T07:04:05;29.50;46.10
39695;DHT22;25367;-35.352;149.036;2023-03-01T07:06:34;29.50;46.00
39695;DHT22;25367;-35.352;149.036;2023-03-01T07:09:03;29.50;46.20
39695;DHT22;25367;-35.352;149.036;2023-03-01T07:11:36;29.50;46.20
39695;DHT22;25367;-35.352;149.036;2023-03-01T07:14:05;29.50;46.40
39695;DHT22;25367;-35.352;149.036;2023-03-01T07:16:35;29.40;46.30
39695;DHT22;25367;-35.352;149.036;2023-03-01T07:19:05;29.50;46.30
39695;DHT22;25367;-35.352;149.036;2023-03-01T07:21:34;29.50;46.30
39695;DHT22;25367;-35.352;149.036;2023-03-01T07:24:03;29.50;46.50
39695;DHT22;25367;-35.352;149.036;2023-03-01T07:26:36;29.50;46.40
39695;DHT22;25367;-35.352;149.036;2023-03-01T07:29:07;29.50;46.40
39695;DHT22;25367;-35.352;149.036;2023-03-01T07:31:38;29.50;46.60
39695;DHT22;25367;-35.352;149.036;2023-03-01T07:34:08;29.50;46.60
39695;DHT22;25367;-35.352;149.036;2023-03-01T07:36:37;29.50;46.60
39695;DHT22;25367;-35.352;149.036;2023-03-01T07:39:07;29.50;46.40
39695;DHT22;25367;-35.352;149.036;2023-03-01T07:41:39;29.50;46.40
39695;DHT22;25367;-35.352;149.036;2023-03-01T07:44:09;29.50;46.50
39695;DHT22;25367;-35.352;149.036;2023-03-01T07:46:38;29.50;46.40
39695;DHT22;25367;-35.352;149.036;2023-03-01T07:49:08;29.50;46.40
39695;DHT22;25367;-35.352;149.036;2023-03-01T07:51:37;29.40;46.30
39695;DHT22;25367;-35.352;149.036;2023-03-01T07:54:07;29.50;46.40
39695;DHT22;25367;-35.352;149.036;2023-03-01T07:56:40;29.50;46.40
39695;DHT22;25367;-35.352;149.036;2023-03-01T07:59:09;29.50;46.40
39695;DHT22;25367;-35.352;149.036;2023-03-01T08:01:39;29.40;46.30
39695;DHT22;25367;-35.352;149.036;2023-03-01T08:04:09;29.40;46.20
39695;DHT22;25367;-35.352;149.036;2023-03-01T08:06:38;29.50;46.50
39695;DHT22;25367;-35.352;149.036;2023-03-01T08:09:07;29.40;46.40
39695;DHT22;25367;-35.352;149.036;2023-03-01T08:11:40;29.40;46.30
39695;DHT22;25367;-35.352;149.036;2023-03-01T08:14:09;29.40;46.20
39695;DHT22;25367;-35.352;149.036;2023-03-01T08:16:39;29.40;46.30
39695;DHT22;25367;-35.352;149.036;2023-03-01T08:19:09;29.40;46.20
39695;DHT22;25367;-35.352;149.036;2023-03-01T08:21:39;29.40;46.20
39695;DHT22;25367;-35.352;149.036;2023-03-01T08:24:09;29.40;46.20
39695;DHT22;25367;-35.352;149.036;2023-03-01T08:26:42;29.40;46.20
39695;DHT22;25367;-35.352;149.036;2023-03-01T08:29:11;29.40;45.90
39695;DHT22;25367;-35.352;149.036;2023-03-01T08:31:41;29.40;45.60
39695;DHT22;25367;-35.352;149.036;2023-03-01T08:34:12;29.40;45.30
39695;DHT22;25367;-35.352;149.036;2023-03-01T08:36:42;29.30;45.80
39695;DHT22;25367;-35.352;149.036;2023-03-01T08:39:13;29.30;45.20
39695;DHT22;25367;-35.352;149.036;2023-03-01T08:41:46;29.20;44.90
39695;DHT22;25367;-35.352;149.036;2023-03-01T08:44:16;29.30;45.20
39695;DHT22;25367;-35.352;149.036;2023-03-01T08:46:46;29.20;44.90
39695;DHT22;25367;-35.352;149.036;2023-03-01T08:49:17;29.20;44.70
39695;DHT22;25367;-35.352;149.036;2023-03-01T08:51:48;29.20;44.60
39695;DHT22;25367;-35.352;149.036;2023-03-01T08:54:18;29.20;44.60
39695;DHT22;25367;-35.352;149.036;2023-03-01T08:56:50;29.10;44.40
39695;DHT22;25367;-35.352;149.036;2023-03-01T08:59:19;29.10;44.40
39695;DHT22;25367;-35.352;149.036;2023-03-01T09:01:49;29.10;44.40
39695;DHT22;25367;-35.352;149.036;2023-03-01T09:04:18;29.00;44.50
39695;DHT22;25367;-35.352;149.036;2023-03-01T09:06:48;29.00;44.60
39695;DHT22;25367;-35.352;149.036;2023-03-01T09:09:18;29.00;44.80
39695;DHT22;25367;-35.352;149.036;2023-03-01T09:11:50;29.00;44.60
39695;DHT22;25367;-35.352;149.036;2023-03-01T09:14:20;29.00;44.70
39695;DHT22;25367;-35.352;149.036;2023-03-01T09:16:49;29.00;44.60
39695;DHT22;25367;-35.352;149.036;2023-03-01T09:19:19;28.90;44.60
39695;DHT22;25367;-35.352;149.036;2023-03-01T09:21:48;28.90;44.80
39695;DHT22;25367;-35.352;149.036;2023-03-01T09:24:18;29.00;45.00
39695;DHT22;25367;-35.352;149.036;2023-03-01T09:26:51;28.90;45.10
39695;DHT22;25367;-35.352;149.036;2023-03-01T09:29:22;28.90;45.30
39695;DHT22;25367;-35.352;149.036;2023-03-01T09:31:51;28.90;45.50
39695;DHT22;25367;-35.352;149.036;2023-03-01T09:34:21;28.90;45.60
39695;DHT22;25367;-35.352;149.036;2023-03-01T09:36:50;28.90;45.60
39695;DHT22;25367;-35.352;149.036;2023-03-01T09:39:20;28.90;45.80
39695;DHT22;25367;-35.352;149.036;2023-03-01T09:41:57;28.90;45.90
39695;DHT22;25367;-35.352;149.036;2023-03-01T09:44:34;29.00;46.10
39695;DHT22;25367;-35.352;149.036;2023-03-01T09:47:05;28.90;46.10
39695;DHT22;25367;-35.352;149.036;2023-03-01T09:49:41;28.90;46.20
39695;DHT22;25367;-35.352;149.036;2023-03-01T09:52:20;28.90;46.30
39695;DHT22;25367;-35.352;149.036;2023-03-01T09:54:55;28.90;46.30
39695;DHT22;25367;-35.352;149.036;2023-03-01T09:57:35;28.90;46.30
39695;DHT22;25367;-35.352;149.036;2023-03-01T10:00:14;28.90;46.30
39695;DHT22;25367;-35.352;149.036;2023-03-01T10:02:48;28.90;46.40
39695;DHT22;25367;-35.352;149.036;2023-03-01T10:05:39;28.90;46.40
39695;DHT22;25367;-35.352;149.036;2023-03-01T10:08:29;28.90;46.50
39695;DHT22;25367;-35.352;149.036;2023-03-01T10:10:59;28.90;46.50
39695;DHT22;25367;-35.352;149.036;2023-03-01T10:13:41;28.90;46.50
39695;DHT22;25367;-35.352;149.036;2023-03-01T10:16:16;28.90;46.60
39695;DHT22;25367;-35.352;149.036;2023-03-01T10:18:48;28.90;46.80
39695;DHT22;25367;-35.352;149.036;2023-03-01T10:21:21;28.90;46.60
39695;DHT22;25367;-35.352;149.036;2023-03-01T10:23:52;28.80;46.50
39695;DHT22;25367;-35.352;149.036;2023-03-01T10:26:41;28.90;46.50
39695;DHT22;25367;-35.352;149.036;2023-03-01T10:29:19;28.90;46.40
39695;DHT22;25367;-35.352;149.036;2023-03-01T10:31:52;28.80;46.30
39695;DHT22;25367;-35.352;149.036;2023-03-01T10:34:26;28.80;46.30
39695;DHT22;25367;-35.352;149.036;2023-03-01T10:36:59;28.80;46.40
39695;DHT22;25367;-35.352;149.036;2023-03-01T10:39:30;28.80;46.30
39695;DHT22;25367;-35.352;149.036;2023-03-01T10:42:01;28.80;46.30
39695;DHT22;25367;-35.352;149.036;2023-03-01T10:44:54;28.80;46.20
39695;DHT22;25367;-35.352;149.036;2023-03-01T10:47:25;28.80;46.30
39695;DHT22;25367;-35.352;149.036;2023-03-01T10:49:57;28.80;46.20
39695;DHT22;25367;-35.352;149.036;2023-03-01T10:52:30;28.70;46.10
39695;DHT22;25367;-35.352;149.036;2023-03-01T10:54:59;28.70;46.10
39695;DHT22;25367;-35.352;149.036;2023-03-01T10:57:41;28.60;46.30
39695;DHT22;25367;-35.352;149.036;2023-03-01T11:00:23;28.60;46.40
39695;DHT22;25367;-35.352;149.036;2023-03-01T11:03:10;28.70;46.50
39695;DHT22;25367;-35.352;149.036;2023-03-01T11:05:55;28.60;46.30
39695;DHT22;25367;-35.352;149.036;2023-03-01T11:08:46;28.60;46.20
39695;DHT22;25367;-35.352;149.036;2023-03-01T11:14:07;28.60;46.10
39695;DHT22;25367;-35.352;149.036;2023-03-01T11:16:41;28.60;46.10
39695;DHT22;25367;-35.352;149.036;2023-03-01T11:19:20;28.60;46.10
39695;DHT22;25367;-35.352;149.036;2023-03-01T11:21:58;28.60;46.10
39695;DHT22;25367;-35.352;149.036;2023-03-01T11:24:36;28.60;46.20
39695;DHT22;25367;-35.352;149.036;2023-03-01T11:27:18;28.50;46.30
39695;DHT22;25367;-35.352;149.036;2023-03-01T11:29:52;28.50;46.30
39695;DHT22;25367;-35.352;149.036;2023-03-01T11:32:29;28.50;46.20
39695;DHT22;25367;-35.352;149.036;2023-03-01T11:35:05;28.60;46.30
39695;DHT22;25367;-35.352;149.036;2023-03-01T11:37:41;28.50;46.20
39695;DHT22;25367;-35.352;149.036;2023-03-01T11:40:17;28.50;46.10
39695;DHT22;25367;-35.352;149.036;2023-03-01T11:43:04;28.40;46.10
39695;DHT22;25367;-35.352;149.036;2023-03-01T11:45:39;28.40;46.10
39695;DHT22;25367;-35.352;149.036;2023-03-01T11:51:29;28.40;46.20
39695;DHT22;25367;-35.352;149.036;2023-03-01T11:54:18;28.30;46.20
39695;DHT22;25367;-35.352;149.036;2023-03-01T11:56:57;28.30;46.20
39695;DHT22;25367;-35.352;149.036;2023-03-01T11:59:58;28.20;46.20
39695;DHT22;25367;-35.352;149.036;2023-03-01T12:02:58;28.20;46.20
39695;DHT22;25367;-35.352;149.036;2023-03-01T12:05:52;28.20;46.30
39695;DHT22;25367;-35.352;149.036;2023-03-01T12:08:31;28.10;46.20
39695;DHT22;25367;-35.352;149.036;2023-03-01T12:11:08;28.10;46.30
39695;DHT22;25367;-35.352;149.036;2023-03-01T12:17:06;28.00;46.20
39695;DHT22;25367;-35.352;149.036;2023-03-01T12:19:50;28.00;46.50
39695;DHT22;25367;-35.352;149.036;2023-03-01T12:22:30;27.90;46.70
39695;DHT22;25367;-35.352;149.036;2023-03-01T12:25:26;27.90;46.70
39695;DHT22;25367;-35.352;149.036;2023-03-01T12:28:18;27.90;46.70
39695;DHT22;25367;-35.352;149.036;2023-03-01T12:31:20;27.90;46.80
39695;DHT22;25367;-35.352;149.036;2023-03-01T12:33:57;27.80;46.90
39695;DHT22;25367;-35.352;149.036;2023-03-01T12:36:50;27.80;47.00
39695;DHT22;25367;-35.352;149.036;2023-03-01T12:39:34;27.80;46.90
39695;DHT22;25367;-35.352;149.036;2023-03-01T12:42:13;27.80;47.10
39695;DHT22;25367;-35.352;149.036;2023-03-01T12:47:58;27.80;47.10
39695;DHT22;25367;-35.352;149.036;2023-03-01T12:50:38;27.70;47.10
39695;DHT22;25367;-35.352;149.036;2023-03-01T12:53:24;27.70;47.20
39695;DHT22;25367;-35.352;149.036;2023-03-01T12:55:58;27.70;47.10
39695;DHT22;25367;-35.352;149.036;2023-03-01T12:58:34;27.70;47.20
39695;DHT22;25367;-35.352;149.036;2023-03-01T13:01:15;27.60;47.20
39695;DHT22;25367;-35.352;149.036;2023-03-01T13:04:04;27.60;47.20
39695;DHT22;25367;-35.352;149.036;2023-03-01T13:06:41;27.60;47.20
39695;DHT22;25367;-35.352;149.036;2023-03-01T13:09:19;27.60;47.30
39695;DHT22;25367;-35.352;149.036;2023-03-01T13:11:51;27.60;47.30
39695;DHT22;25367;-35.352;149.036;2023-03-01T13:14:45;27.50;47.20
39695;DHT22;25367;-35.352;149.036;2023-03-01T13:17:40;27.50;47.10
39695;DHT22;25367;-35.352;149.036;2023-03-01T13:20:14;27.50;47.10
39695;DHT22;25367;-35.352;149.036;2023-03-01T13:22:44;27.50;47.30
39695;DHT22;25367;-35.352;149.036;2023-03-01T13:25:16;27.50;47.40
39695;DHT22;25367;-35.352;149.036;2023-03-01T13:27:46;27.50;47.30
39695;DHT22;25367;-35.352;149.036;2023-03-01T13:30:43;27.40;47.30
39695;DHT22;25367;-35.352;149.036;2023-03-01T13:33:41;27.40;47.20
39695;DHT22;25367;-35.352;149.036;2023-03-01T13:36:42;27.50;47.30
39695;DHT22;25367;-35.352;149.036;2023-03-01T13:39:02;27.40;47.50
39695;DHT22;25367;-35.352;149.036;2023-03-01T13:41:53;27.30;47.40
39695;DHT22;25367;-35.352;149.036;2023-03-01T13:44:32;27.40;47.30
39695;DHT22;25367;-35.352;149.036;2023-03-01T13:47:15;27.40;47.50
39695;DHT22;25367;-35.352;149.036;2023-03-01T13:49:48;27.30;47.40
39695;DHT22;25367;-35.352;149.036;2023-03-01T13:52:37;27.30;47.50
39695;DHT22;25367;-35.352;149.036;2023-03-01T13:55:17;27.30;47.40
39695;DHT22;25367;-35.352;149.036;2023-03-01T13:57:49;27.30;47.50
39695;DHT22;25367;-35.352;149.036;2023-03-01T14:00:34;27.20;47.60
39695;DHT22;25367;-35.352;149.036;2023-03-01T14:03:12;27.20;47.50
39695;DHT22;25367;-35.352;149.036;2023-03-01T14:05:44;27.20;47.60
39695;DHT22;25367;-35.352;149.036;2023-03-01T14:08:28;27.10;47.60
39695;DHT22;25367;-35.352;149.036;2023-03-01T14:11:17;27.10;47.70
39695;DHT22;25367;-35.352;149.036;2023-03-01T14:14:03;27.20;47.70
39695;DHT22;25367;-35.352;149.036;2023-03-01T14:16:45;27.10;47.70
39695;DHT22;25367;-35.352;149.036;2023-03-01T14:19:23;27.10;47.70
39695;DHT22;25367;-35.352;149.036;2023-03-01T14:22:02;27.10;47.80
39695;DHT22;25367;-35.352;149.036;2023-03-01T14:24:35;27.10;47.80
39695;DHT22;25367;-35.352;149.036;2023-03-01T14:27:11;27.10;47.80
39695;DHT22;25367;-35.352;149.036;2023-03-01T14:29:41;27.10;47.80
39695;DHT22;25367;-35.352;149.036;2023-03-01T14:32:19;27.10;47.90
39695;DHT22;25367;-35.352;149.036;2023-03-01T14:34:53;27.00;47.70
39695;DHT22;25367;-35.352;149.036;2023-03-01T14:37:25;27.00;47.90
39695;DHT22;25367;-35.352;149.036;2023-03-01T14:39:55;27.00;47.90
39695;DHT22;25367;-35.352;149.036;2023-03-01T14:42:26;27.00;47.90
39695;DHT22;25367;-35.352;149.036;2023-03-01T14:44:58;27.00;47.90
39695;DHT22;25367;-35.352;149.036;2023-03-01T14:47:32;27.00;48.00
39695;DHT22;25367;-35.352;149.036;2023-03-01T14:50:08;26.90;47.90
39695;DHT22;25367;-35.352;149.036;2023-03-01T14:52:40;26.90;47.90
39695;DHT22;25367;-35.352;149.036;2023-03-01T14:55:17;26.90;48.00
39695;DHT22;25367;-35.352;149.036;2023-03-01T14:57:50;26.90;47.90
39695;DHT22;25367;-35.352;149.036;2023-03-01T15:00:22;26.90;48.00
39695;DHT22;25367;-35.352;149.036;2023-03-01T15:02:53;26.90;48.10
39695;DHT22;25367;-35.352;149.036;2023-03-01T15:05:30;26.90;48.10
39695;DHT22;25367;-35.352;149.036;2023-03-01T15:08:02;26.90;48.00
39695;DHT22;25367;-35.352;149.036;2023-03-01T15:10:34;26.80;48.10
39695;DHT22;25367;-35.352;149.036;2023-03-01T15:13:19;26.80;48.10
39695;DHT22;25367;-35.352;149.036;2023-03-01T15:15:51;26.80;48.00
39695;DHT22;25367;-35.352;149.036;2023-03-01T15:18:26;26.80;48.20
39695;DHT22;25367;-35.352;149.036;2023-03-01T15:21:07;26.80;48.20
39695;DHT22;25367;-35.352;149.036;2023-03-01T15:23:38;26.80;48.10
39695;DHT22;25367;-35.352;149.036;2023-03-01T15:26:18;26.70;48.20
39695;DHT22;25367;-35.352;149.036;2023-03-01T15:28:52;26.70;48.20
39695;DHT22;25367;-35.352;149.036;2023-03-01T15:31:23;26.70;48.30
39695;DHT22;25367;-35.352;149.036;2023-03-01T15:33:53;26.70;48.30
39695;DHT22;25367;-35.352;149.036;2023-03-01T15:36:43;26.70;48.30
39695;DHT22;25367;-35.352;149.036;2023-03-01T15:39:34;26.70;48.30